createdAt,value
2022-09-21T00:03:25.304Z,97707.31
2022-09-21T00:08:18.550Z,97709.28
2022-09-21T00:13:16.323Z,97709.47
2022-09-21T00:18:11.788Z,97705.56
2022-09-21T00:23:05.020Z,97709.91
2022-09-21T00:27:58.300Z,97705.13
2022-09-21T00:32:51.541Z,97704.47
2022-09-21T00:37:46.252Z,97699.22
2022-09-21T00:42:40.403Z,97694.56
2022-09-21T00:47:37.955Z,97691.78
2022-09-21T00:52:36.630Z,97682.28
2022-09-21T00:57:35.513Z,97691.09
2022-09-21T01:02:29.534Z,97687.91
2022-09-21T01:07:28.816Z,97686.91
2022-09-21T01:12:54.269Z,97696.19
2022-09-21T01:17:57.499Z,97684.53
2022-09-21T01:23:15.972Z,97684.59
2022-09-21T01:28:29.316Z,97687.94
2022-09-21T01:33:31.676Z,97689.09
2022-09-21T01:38:29.875Z,97683.00
2022-09-21T01:43:32.461Z,97686.28
2022-09-21T01:48:27.515Z,97681.59
2022-09-21T01:53:29.699Z,97682.03
2022-09-21T01:58:33.216Z,97690.56
2022-09-21T02:03:34.945Z,97687.09
2022-09-21T02:08:32.090Z,97682.91
2022-09-21T02:13:29.744Z,97672.81
2022-09-21T02:18:41.408Z,97671.84
2022-09-21T02:23:43.968Z,97675.13
2022-09-21T02:28:48.710Z,97676.53
2022-09-21T02:33:57.998Z,97668.47
2022-09-21T02:39:05.127Z,97667.34
2022-09-21T02:44:07.390Z,97668.69
2022-09-21T02:49:08.664Z,97672.78
2022-09-21T02:54:07.913Z,97675.03
2022-09-21T02:59:05.713Z,97670.53
2022-09-21T03:03:59.362Z,97662.25
2022-09-21T03:08:54.254Z,97666.81
2022-09-21T03:13:48.259Z,97662.63
2022-09-21T03:18:44.389Z,97666.38
2022-09-21T03:23:37.894Z,97666.69
2022-09-21T03:28:32.561Z,97670.88
2022-09-21T03:33:26.260Z,97672.41
2022-09-21T03:38:21.587Z,97666.25
2022-09-21T03:43:15.068Z,97675.53
2022-09-21T03:48:11.550Z,97680.19
2022-09-21T03:53:05.706Z,97680.50
2022-09-21T03:57:58.994Z,97682.03
2022-09-21T04:02:52.301Z,97680.88
2022-09-21T04:07:47.320Z,97672.97
2022-09-21T04:12:43.845Z,97675.44
2022-09-21T04:17:37.087Z,97685.16
2022-09-21T04:22:31.459Z,97683.59
2022-09-21T04:27:26.143Z,97679.88
2022-09-21T04:32:19.309Z,97679.44
2022-09-21T04:37:12.724Z,97684.34
2022-09-21T04:42:06.624Z,97683.63
2022-09-21T04:47:01.284Z,97689.94
2022-09-21T04:51:54.778Z,97692.03
2022-09-21T04:56:48.050Z,97690.19
2022-09-21T05:01:41.367Z,97687.28
2022-09-21T05:06:36.133Z,97699.34
2022-09-21T05:11:29.458Z,97698.84
2022-09-21T05:16:22.707Z,97704.34
2022-09-21T05:21:16.667Z,97702.78
2022-09-21T05:26:11.295Z,97707.50
2022-09-21T05:31:20.486Z,97709.94
2022-09-21T05:36:38.302Z,97720.41
2022-09-21T05:41:33.964Z,97715.19
2022-09-21T05:46:39.655Z,97715.88
2022-09-21T05:51:44.258Z,97720.75
2022-09-21T05:56:54.878Z,97720.41
2022-09-21T06:02:05.497Z,97719.91
2022-09-21T06:06:58.762Z,97716.00
2022-09-21T06:11:53.837Z,97708.38
2022-09-21T06:16:47.103Z,97715.34
2022-09-21T06:21:40.383Z,97716.91
2022-09-21T06:26:33.909Z,97714.34
2022-09-21T06:31:29.826Z,97714.88
2022-09-21T06:36:23.595Z,97709.28
2022-09-21T06:41:21.219Z,97714.25
2022-09-21T06:46:14.929Z,97716.31
2022-09-21T06:51:10.933Z,97721.66
2022-09-21T06:56:06.520Z,97714.75
2022-09-21T07:00:59.879Z,97712.59
2022-09-21T07:05:53.282Z,97717.88
2022-09-21T07:10:48.010Z,97726.47
2022-09-21T07:15:41.299Z,97717.78
2022-09-21T07:20:34.607Z,97727.16
2022-09-21T07:25:27.941Z,97723.13
2022-09-21T07:30:22.821Z,97727.84
2022-09-21T07:35:17.533Z,97728.22
2022-09-21T07:40:12.149Z,97732.09
2022-09-21T07:45:06.274Z,97727.09
2022-09-21T07:50:01.035Z,97724.16
2022-09-21T07:54:54.366Z,97727.31
2022-09-21T07:59:48.730Z,97727.78
2022-09-21T08:04:41.966Z,97724.16
2022-09-21T08:09:36.565Z,97723.53
2022-09-21T08:14:29.847Z,97721.91
2022-09-21T08:19:25.850Z,97727.34
2022-09-21T08:24:19.790Z,97715.72
2022-09-21T08:29:14.591Z,97715.59
2022-09-21T08:34:07.917Z,97706.22
2022-09-21T08:39:01.194Z,97713.50
2022-09-21T08:43:59.895Z,97707.91
2022-09-21T08:49:01.342Z,97710.53
2022-09-21T08:53:59.501Z,97706.25
2022-09-21T08:58:52.897Z,97696.88
2022-09-21T09:04:25.360Z,97704.84
2022-09-21T09:09:56.316Z,97692.75
2022-09-21T09:15:16.411Z,97686.03
2022-09-21T09:20:19.810Z,97686.03
2022-09-21T09:25:22.497Z,97682.25
2022-09-21T09:30:21.547Z,97677.53
2022-09-21T09:35:28.476Z,97668.31
2022-09-21T09:40:43.302Z,97658.84
2022-09-21T09:45:54.700Z,97648.47
2022-09-21T09:50:49.596Z,97630.78
2022-09-21T09:55:47.975Z,97638.03
2022-09-21T10:00:41.789Z,97629.84
2022-09-21T10:05:38.282Z,97620.41
2022-09-21T10:10:37.547Z,97617.75
2022-09-21T10:15:31.173Z,97606.38
2022-09-21T10:20:25.394Z,97611.88
2022-09-21T10:25:21.263Z,97595.06
2022-09-21T10:30:38.569Z,97592.91
2022-09-21T10:35:31.940Z,97577.81
2022-09-21T10:40:30.810Z,97582.56
2022-09-21T10:45:29.127Z,97573.28
2022-09-21T10:50:29.078Z,97574.06
2022-09-21T10:55:25.224Z,97567.13
2022-09-21T11:00:38.675Z,97572.47
2022-09-21T11:05:39.161Z,97560.72
2022-09-21T11:10:49.089Z,97565.13
2022-09-21T11:15:52.814Z,97557.06
2022-09-21T11:20:54.052Z,97552.59
2022-09-21T11:26:00.495Z,97531.13
2022-09-21T11:31:40.191Z,97535.31
2022-09-21T11:36:47.872Z,97542.03
2022-09-21T11:42:03.896Z,97535.91
2022-09-21T11:47:18.836Z,97522.84
2022-09-21T11:52:39.266Z,97523.97
2022-09-21T11:57:44.663Z,97524.81
2022-09-21T12:03:23.709Z,97522.72
2022-09-21T12:08:45.564Z,97525.38
2022-09-21T12:13:52.022Z,97508.91
2022-09-21T12:18:59.224Z,97520.09
2022-09-21T12:23:57.310Z,97505.75
2022-09-21T12:28:56.382Z,97505.78
2022-09-21T12:33:55.265Z,97503.13
2022-09-21T12:39:00.365Z,97483.03
2022-09-21T12:44:06.837Z,97488.34
2022-09-21T12:49:13.108Z,97486.66
2022-09-21T12:54:19.051Z,97483.91
2022-09-21T12:59:36.509Z,97482.22
2022-09-21T13:04:44.719Z,97477.50
2022-09-21T13:09:43.185Z,97474.13
2022-09-21T13:14:44.565Z,97478.31
2022-09-21T13:19:39.419Z,97470.13
2022-09-21T13:24:33.000Z,97470.25
2022-09-21T13:29:34.217Z,97466.91
2022-09-21T13:34:33.602Z,97476.91
2022-09-21T13:39:28.817Z,97463.16
2022-09-21T13:44:43.268Z,97459.66
2022-09-21T13:49:54.836Z,97453.25
2022-09-21T13:54:57.767Z,97454.91
2022-09-21T14:00:33.425Z,97452.16
2022-09-21T14:05:35.012Z,97440.19
2022-09-21T14:10:33.045Z,97441.03
2022-09-21T14:15:40.359Z,97444.34
2022-09-21T14:20:39.568Z,97456.59
2022-09-21T14:25:53.159Z,97450.03
2022-09-21T14:30:58.960Z,97452.72
2022-09-21T14:35:54.138Z,97447.00
2022-09-21T14:40:52.384Z,97463.72
2022-09-21T14:46:18.187Z,97457.44
2022-09-21T14:51:23.903Z,97446.56
2022-09-21T14:56:44.151Z,97440.19
2022-09-21T15:01:41.469Z,97457.31
2022-09-21T15:07:09.984Z,97457.97
2022-09-21T15:12:16.543Z,97444.63
2022-09-21T15:17:25.732Z,97458.69
2022-09-21T15:22:21.745Z,97454.06
2022-09-21T15:27:20.043Z,97455.47
2022-09-21T15:32:31.442Z,97446.81
2022-09-21T15:37:24.759Z,97454.91
2022-09-21T15:42:23.539Z,97459.38
2022-09-21T15:47:21.467Z,97436.09
2022-09-21T15:52:25.096Z,97455.69
2022-09-21T15:57:38.460Z,97449.00
2022-09-21T16:02:40.324Z,97457.78
2022-09-21T16:07:35.921Z,97461.78
2022-09-21T16:12:45.986Z,97459.69
2022-09-21T16:17:40.060Z,97468.56
2022-09-21T16:22:42.199Z,97487.56
2022-09-21T16:27:35.652Z,97491.28
2022-09-21T16:32:33.469Z,97486.91
2022-09-21T16:37:29.912Z,97495.22
2022-09-21T16:42:27.914Z,97492.00
2022-09-21T16:47:25.152Z,97505.16
2022-09-21T16:52:19.859Z,97521.28
2022-09-21T16:57:14.347Z,97514.31
2022-09-21T17:02:08.592Z,97519.59
2022-09-21T17:07:04.962Z,97520.81
2022-09-21T17:12:01.604Z,97533.25
2022-09-21T17:16:58.830Z,97525.00
2022-09-21T17:21:52.322Z,97542.91
2022-09-21T17:26:46.031Z,97543.75
2022-09-21T17:31:41.167Z,97550.25
2022-09-21T17:36:35.058Z,97556.63
2022-09-21T17:41:39.808Z,97547.41
2022-09-21T17:46:47.265Z,97549.97
2022-09-21T17:51:58.805Z,97561.69
2022-09-21T17:57:03.751Z,97562.66
2022-09-21T18:02:00.207Z,97576.56
2022-09-21T18:06:54.555Z,97567.56
2022-09-21T18:12:48.566Z,97573.69
2022-09-21T18:18:06.475Z,97575.25
2022-09-21T18:23:11.869Z,97570.22
2022-09-21T18:28:18.320Z,97584.56
2022-09-21T18:33:25.568Z,97580.88
2022-09-21T18:38:28.396Z,97585.31
2022-09-21T18:43:41.791Z,97587.69
2022-09-21T18:48:57.224Z,97584.00
2022-09-21T18:53:55.844Z,97591.59
2022-09-21T18:58:50.651Z,97592.16
2022-09-21T19:03:46.549Z,97601.28
2022-09-21T19:08:50.338Z,97601.56
2022-09-21T19:13:57.284Z,97598.88
2022-09-21T19:19:11.306Z,97595.84
2022-09-21T19:24:19.688Z,97604.97
2022-09-21T19:29:49.832Z,97591.94
2022-09-21T19:34:45.511Z,97596.00
2022-09-21T19:39:39.772Z,97589.84
2022-09-21T19:44:54.221Z,97592.34
2022-09-21T19:49:54.673Z,97593.13
2022-09-21T19:55:06.627Z,97594.09
2022-09-21T20:00:06.314Z,97593.41
2022-09-21T20:05:09.323Z,97593.84
2022-09-21T20:10:42.149Z,97578.31
2022-09-21T20:15:42.805Z,97590.13
2022-09-21T20:20:38.111Z,97583.78
2022-09-21T20:25:38.379Z,97579.84
2022-09-21T20:30:36.015Z,97580.25
2022-09-21T20:35:31.694Z,97579.03
2022-09-21T20:40:29.155Z,97583.06
2022-09-21T20:45:23.773Z,97573.06
2022-09-21T20:50:17.840Z,97584.22
2022-09-21T20:55:15.102Z,97580.97
2022-09-21T21:00:13.592Z,97592.03
2022-09-21T21:05:10.365Z,97590.13
2022-09-21T21:10:03.910Z,97589.19
2022-09-21T21:14:59.135Z,97590.22
2022-09-21T21:19:53.790Z,97589.16
2022-09-21T21:24:47.208Z,97596.06
2022-09-21T21:29:40.456Z,97589.69
2022-09-21T21:34:33.725Z,97589.06
2022-09-21T21:39:28.354Z,97595.88
2022-09-21T21:44:21.579Z,97601.19
2022-09-21T21:49:14.873Z,97602.03
2022-09-21T21:54:08.494Z,97599.59
2022-09-21T21:59:03.107Z,97600.53
2022-09-21T22:03:58.932Z,97603.25
2022-09-21T22:08:52.734Z,97603.31
2022-09-21T22:13:47.050Z,97594.91
2022-09-21T22:18:42.994Z,97599.13
2022-09-21T22:23:36.902Z,97598.47
2022-09-21T22:28:30.334Z,97592.09
2022-09-21T22:33:23.680Z,97589.84
2022-09-21T22:38:18.623Z,97588.28
2022-09-21T22:43:11.872Z,97587.53
2022-09-21T22:48:05.171Z,97596.91
2022-09-21T22:52:58.359Z,97582.88
2022-09-21T22:57:52.989Z,97595.69
2022-09-21T23:02:46.323Z,97589.72
2022-09-21T23:07:39.524Z,97589.91
2022-09-21T23:12:33.117Z,97590.88
2022-09-21T23:17:29.350Z,97591.53
2022-09-21T23:22:22.678Z,97587.88
2022-09-21T23:27:15.940Z,97575.16
2022-09-21T23:32:09.147Z,97578.97
2022-09-21T23:37:03.767Z,97577.97
2022-09-21T23:41:57.029Z,97572.81
2022-09-21T23:46:50.519Z,97572.44
2022-09-21T23:51:43.945Z,97573.38
2022-09-21T23:56:38.677Z,97573.47
